sensor_id;sensor_type;location;lat;lon;timestamp;P1;durP1;ratioP1;P2;durP2;ratioP2
25191;SDS011;13143;50.924;5.320;2022-12-18T00:00:45;100.30;;;38.05;;
25191;SDS011;13143;50.924;5.320;2022-12-18T00:03:14;101.57;;;39.13;;
25191;SDS011;13143;50.924;5.320;2022-12-18T00:05:49;93.03;;;38.65;;
25191;SDS011;13143;50.924;5.320;2022-12-18T00:08:16;95.22;;;38.13;;
25191;SDS011;13143;50.924;5.320;2022-12-18T00:10:43;99.95;;;38.72;;
25191;SDS011;13143;50.924;5.320;2022-12-18T00:13:09;93.82;;;37.45;;
25191;SDS011;13143;50.924;5.320;2022-12-18T00:15:35;89.70;;;36.60;;
25191;SDS011;13143;50.924;5.320;2022-12-18T00:18:02;100.80;;;36.50;;
25191;SDS011;13143;50.924;5.320;2022-12-18T00:20:28;91.43;;;37.78;;
25191;SDS011;13143;50.924;5.320;2022-12-18T00:22:54;94.70;;;37.03;;
25191;SDS011;13143;50.924;5.320;2022-12-18T00:25:19;88.55;;;36.55;;
25191;SDS011;13143;50.924;5.320;2022-12-18T00:27:45;91.93;;;37.78;;
25191;SDS011;13143;50.924;5.320;2022-12-18T00:30:11;87.53;;;36.22;;
25191;SDS011;13143;50.924;5.320;2022-12-18T00:32:37;87.18;;;35.72;;
25191;SDS011;13143;50.924;5.320;2022-12-18T00:35:03;96.32;;;36.58;;
25191;SDS011;13143;50.924;5.320;2022-12-18T00:37:29;95.85;;;36.00;;
25191;SDS011;13143;50.924;5.320;2022-12-18T00:39:55;96.50;;;35.72;;
25191;SDS011;13143;50.924;5.320;2022-12-18T00:42:20;98.50;;;38.28;;
25191;SDS011;13143;50.924;5.320;2022-12-18T00:45:05;88.88;;;35.65;;
25191;SDS011;13143;50.924;5.320;2022-12-18T00:47:31;93.28;;;36.25;;
25191;SDS011;13143;50.924;5.320;2022-12-18T00:49:56;87.53;;;36.90;;
25191;SDS011;13143;50.924;5.320;2022-12-18T00:52:22;89.05;;;35.22;;
25191;SDS011;13143;50.924;5.320;2022-12-18T00:54:47;89.93;;;37.00;;
25191;SDS011;13143;50.924;5.320;2022-12-18T00:57:13;85.55;;;35.08;;
25191;SDS011;13143;50.924;5.320;2022-12-18T00:59:38;82.45;;;33.63;;
25191;SDS011;13143;50.924;5.320;2022-12-18T01:02:04;92.20;;;32.85;;
25191;SDS011;13143;50.924;5.320;2022-12-18T01:04:33;87.22;;;33.63;;
25191;SDS011;13143;50.924;5.320;2022-12-18T01:06:59;79.55;;;33.13;;
25191;SDS011;13143;50.924;5.320;2022-12-18T01:09:25;83.93;;;35.15;;
25191;SDS011;13143;50.924;5.320;2022-12-18T01:11:51;78.88;;;32.80;;
25191;SDS011;13143;50.924;5.320;2022-12-18T01:14:16;89.53;;;33.60;;
25191;SDS011;13143;50.924;5.320;2022-12-18T01:16:42;86.43;;;33.80;;
25191;SDS011;13143;50.924;5.320;2022-12-18T01:19:08;78.05;;;33.20;;
25191;SDS011;13143;50.924;5.320;2022-12-18T01:21:34;84.35;;;33.92;;
25191;SDS011;13143;50.924;5.320;2022-12-18T01:23:59;77.13;;;33.25;;
25191;SDS011;13143;50.924;5.320;2022-12-18T01:26:25;82.32;;;33.53;;
25191;SDS011;13143;50.924;5.320;2022-12-18T01:28:54;82.10;;;32.25;;
25191;SDS011;13143;50.924;5.320;2022-12-18T01:31:26;80.72;;;32.05;;
25191;SDS011;13143;50.924;5.320;2022-12-18T01:33:53;84.07;;;33.63;;
25191;SDS011;13143;50.924;5.320;2022-12-18T01:36:20;79.85;;;33.20;;
25191;SDS011;13143;50.924;5.320;2022-12-18T01:38:46;80.85;;;33.05;;
25191;SDS011;13143;50.924;5.320;2022-12-18T01:41:13;84.28;;;32.17;;
25191;SDS011;13143;50.924;5.320;2022-12-18T01:43:51;74.72;;;32.95;;
25191;SDS011;13143;50.924;5.320;2022-12-18T01:46:18;79.80;;;32.45;;
25191;SDS011;13143;50.924;5.320;2022-12-18T01:48:49;77.75;;;31.95;;
25191;SDS011;13143;50.924;5.320;2022-12-18T01:51:18;85.82;;;34.13;;
25191;SDS011;13143;50.924;5.320;2022-12-18T01:53:44;94.00;;;35.08;;
25191;SDS011;13143;50.924;5.320;2022-12-18T01:56:14;85.97;;;34.60;;
25191;SDS011;13143;50.924;5.320;2022-12-18T01:58:45;83.53;;;33.80;;
25191;SDS011;13143;50.924;5.320;2022-12-18T02:01:11;82.30;;;33.22;;
25191;SDS011;13143;50.924;5.320;2022-12-18T02:03:40;73.82;;;33.22;;
25191;SDS011;13143;50.924;5.320;2022-12-18T02:11:52;78.35;;;32.63;;
25191;SDS011;13143;50.924;5.320;2022-12-18T02:14:38;81.57;;;33.65;;
25191;SDS011;13143;50.924;5.320;2022-12-18T02:17:30;79.00;;;31.70;;
25191;SDS011;13143;50.924;5.320;2022-12-18T02:20:16;80.75;;;33.33;;
25191;SDS011;13143;50.924;5.320;2022-12-18T02:30:57;73.05;;;29.73;;
25191;SDS011;13143;50.924;5.320;2022-12-18T02:33:26;81.57;;;33.25;;
25191;SDS011;13143;50.924;5.320;2022-12-18T02:35:53;76.10;;;32.15;;
25191;SDS011;13143;50.924;5.320;2022-12-18T02:38:22;78.28;;;32.08;;
25191;SDS011;13143;50.924;5.320;2022-12-18T02:40:50;80.82;;;32.53;;
25191;SDS011;13143;50.924;5.320;2022-12-18T02:43:18;75.57;;;32.47;;
25191;SDS011;13143;50.924;5.320;2022-12-18T02:45:54;76.03;;;30.17;;
25191;SDS011;13143;50.924;5.320;2022-12-18T02:48:25;67.53;;;29.00;;
25191;SDS011;13143;50.924;5.320;2022-12-18T02:53:36;64.10;;;27.33;;
25191;SDS011;13143;50.924;5.320;2022-12-18T03:04:31;69.72;;;28.30;;
25191;SDS011;13143;50.924;5.320;2022-12-18T03:07:18;61.88;;;25.90;;
25191;SDS011;13143;50.924;5.320;2022-12-18T03:09:49;66.78;;;27.80;;
25191;SDS011;13143;50.924;5.320;2022-12-18T03:15:55;64.32;;;27.38;;
25191;SDS011;13143;50.924;5.320;2022-12-18T03:18:30;64.80;;;25.67;;
25191;SDS011;13143;50.924;5.320;2022-12-18T03:20:58;60.70;;;24.33;;
25191;SDS011;13143;50.924;5.320;2022-12-18T03:23:29;65.63;;;26.63;;
25191;SDS011;13143;50.924;5.320;2022-12-18T03:25:59;69.60;;;26.98;;
25191;SDS011;13143;50.924;5.320;2022-12-18T03:28:29;65.13;;;26.33;;
25191;SDS011;13143;50.924;5.320;2022-12-18T03:30:59;58.38;;;25.52;;
25191;SDS011;13143;50.924;5.320;2022-12-18T03:34:09;65.97;;;26.05;;
25191;SDS011;13143;50.924;5.320;2022-12-18T03:36:17;64.70;;;26.13;;
25191;SDS011;13143;50.924;5.320;2022-12-18T03:38:43;57.03;;;24.40;;
25191;SDS011;13143;50.924;5.320;2022-12-18T03:44:11;58.17;;;25.02;;
25191;SDS011;13143;50.924;5.320;2022-12-18T03:46:41;62.25;;;26.27;;
25191;SDS011;13143;50.924;5.320;2022-12-18T03:49:24;58.70;;;25.35;;
25191;SDS011;13143;50.924;5.320;2022-12-18T03:52:06;55.80;;;24.30;;
25191;SDS011;13143;50.924;5.320;2022-12-18T03:54:35;58.10;;;24.83;;
25191;SDS011;13143;50.924;5.320;2022-12-18T03:57:06;59.20;;;24.58;;
25191;SDS011;13143;50.924;5.320;2022-12-18T03:59:36;53.30;;;24.25;;
25191;SDS011;13143;50.924;5.320;2022-12-18T04:02:04;60.35;;;25.35;;
25191;SDS011;13143;50.924;5.320;2022-12-18T04:04:33;59.13;;;24.50;;
25191;SDS011;13143;50.924;5.320;2022-12-18T04:07:00;56.95;;;23.88;;
25191;SDS011;13143;50.924;5.320;2022-12-18T04:09:27;59.97;;;23.85;;
25191;SDS011;13143;50.924;5.320;2022-12-18T04:11:54;53.47;;;23.50;;
25191;SDS011;13143;50.924;5.320;2022-12-18T04:14:20;58.33;;;24.48;;
25191;SDS011;13143;50.924;5.320;2022-12-18T04:16:46;56.53;;;24.40;;
25191;SDS011;13143;50.924;5.320;2022-12-18T04:19:11;55.78;;;23.63;;
25191;SDS011;13143;50.924;5.320;2022-12-18T04:21:37;57.40;;;24.27;;
25191;SDS011;13143;50.924;5.320;2022-12-18T04:24:03;58.00;;;24.10;;
25191;SDS011;13143;50.924;5.320;2022-12-18T04:26:28;60.40;;;24.17;;
25191;SDS011;13143;50.924;5.320;2022-12-18T04:28:54;52.85;;;23.20;;
25191;SDS011;13143;50.924;5.320;2022-12-18T04:31:20;53.58;;;23.38;;
25191;SDS011;13143;50.924;5.320;2022-12-18T04:33:46;54.22;;;23.27;;
25191;SDS011;13143;50.924;5.320;2022-12-18T04:36:12;59.30;;;24.33;;
25191;SDS011;13143;50.924;5.320;2022-12-18T04:38:37;55.30;;;23.90;;
25191;SDS011;13143;50.924;5.320;2022-12-18T04:41:03;47.95;;;21.98;;
25191;SDS011;13143;50.924;5.320;2022-12-18T04:43:29;48.00;;;21.65;;
25191;SDS011;13143;50.924;5.320;2022-12-18T04:46:01;50.40;;;22.30;;
25191;SDS011;13143;50.924;5.320;2022-12-18T04:48:33;53.10;;;22.25;;
25191;SDS011;13143;50.924;5.320;2022-12-18T04:50:59;51.22;;;20.95;;
25191;SDS011;13143;50.924;5.320;2022-12-18T04:53:25;52.22;;;23.25;;
25191;SDS011;13143;50.924;5.320;2022-12-18T04:56:01;57.30;;;23.15;;
25191;SDS011;13143;50.924;5.320;2022-12-18T04:58:30;43.28;;;20.88;;
25191;SDS011;13143;50.924;5.320;2022-12-18T05:00:56;47.13;;;20.20;;
25191;SDS011;13143;50.924;5.320;2022-12-18T05:03:22;46.47;;;20.98;;
25191;SDS011;13143;50.924;5.320;2022-12-18T05:05:50;50.25;;;21.05;;
25191;SDS011;13143;50.924;5.320;2022-12-18T05:08:17;48.40;;;21.52;;
25191;SDS011;13143;50.924;5.320;2022-12-18T05:10:43;53.58;;;22.17;;
25191;SDS011;13143;50.924;5.320;2022-12-18T05:13:08;46.08;;;20.40;;
25191;SDS011;13143;50.924;5.320;2022-12-18T05:15:34;51.88;;;21.80;;
25191;SDS011;13143;50.924;5.320;2022-12-18T05:18:00;48.17;;;22.13;;
25191;SDS011;13143;50.924;5.320;2022-12-18T05:20:26;46.25;;;20.77;;
25191;SDS011;13143;50.924;5.320;2022-12-18T05:22:53;45.17;;;20.35;;
25191;SDS011;13143;50.924;5.320;2022-12-18T05:25:19;45.35;;;21.00;;
25191;SDS011;13143;50.924;5.320;2022-12-18T05:27:45;51.90;;;22.30;;
25191;SDS011;13143;50.924;5.320;2022-12-18T05:30:11;52.30;;;21.52;;
25191;SDS011;13143;50.924;5.320;2022-12-18T05:32:37;49.75;;;21.80;;
25191;SDS011;13143;50.924;5.320;2022-12-18T05:35:04;47.00;;;20.75;;
25191;SDS011;13143;50.924;5.320;2022-12-18T05:37:31;45.90;;;21.13;;
25191;SDS011;13143;50.924;5.320;2022-12-18T05:39:56;47.58;;;21.33;;
25191;SDS011;13143;50.924;5.320;2022-12-18T05:42:22;45.45;;;19.98;;
25191;SDS011;13143;50.924;5.320;2022-12-18T05:44:48;46.78;;;20.38;;
25191;SDS011;13143;50.924;5.320;2022-12-18T05:47:13;54.75;;;20.17;;
25191;SDS011;13143;50.924;5.320;2022-12-18T05:49:39;51.95;;;20.15;;
25191;SDS011;13143;50.924;5.320;2022-12-18T05:52:04;49.65;;;19.65;;
25191;SDS011;13143;50.924;5.320;2022-12-18T05:54:30;40.88;;;18.42;;
25191;SDS011;13143;50.924;5.320;2022-12-18T05:56:56;42.70;;;18.50;;
25191;SDS011;13143;50.924;5.320;2022-12-18T05:59:22;43.38;;;20.10;;
25191;SDS011;13143;50.924;5.320;2022-12-18T06:01:48;45.88;;;19.17;;
25191;SDS011;13143;50.924;5.320;2022-12-18T06:04:13;46.78;;;19.13;;
25191;SDS011;13143;50.924;5.320;2022-12-18T06:06:39;42.85;;;16.85;;
25191;SDS011;13143;50.924;5.320;2022-12-18T06:09:05;45.75;;;19.05;;
25191;SDS011;13143;50.924;5.320;2022-12-18T06:11:33;42.13;;;17.88;;
25191;SDS011;13143;50.924;5.320;2022-12-18T06:14:00;43.45;;;17.55;;
25191;SDS011;13143;50.924;5.320;2022-12-18T06:16:29;38.30;;;18.30;;
25191;SDS011;13143;50.924;5.320;2022-12-18T06:18:59;46.05;;;18.10;;
25191;SDS011;13143;50.924;5.320;2022-12-18T06:21:27;33.75;;;16.38;;
25191;SDS011;13143;50.924;5.320;2022-12-18T06:23:53;39.88;;;17.17;;
25191;SDS011;13143;50.924;5.320;2022-12-18T06:26:19;40.97;;;17.40;;
25191;SDS011;13143;50.924;5.320;2022-12-18T06:28:45;34.85;;;15.90;;
25191;SDS011;13143;50.924;5.320;2022-12-18T06:31:10;36.40;;;16.35;;
25191;SDS011;13143;50.924;5.320;2022-12-18T06:33:36;34.03;;;15.52;;
25191;SDS011;13143;50.924;5.320;2022-12-18T06:36:07;39.53;;;16.25;;
25191;SDS011;13143;50.924;5.320;2022-12-18T06:38:35;34.63;;;15.55;;
25191;SDS011;13143;50.924;5.320;2022-12-18T06:41:08;40.13;;;15.70;;
25191;SDS011;13143;50.924;5.320;2022-12-18T06:43:35;36.40;;;16.25;;
25191;SDS011;13143;50.924;5.320;2022-12-18T06:46:01;32.45;;;14.48;;
25191;SDS011;13143;50.924;5.320;2022-12-18T06:48:28;34.72;;;15.20;;
25191;SDS011;13143;50.924;5.320;2022-12-18T06:50:54;31.35;;;15.02;;
25191;SDS011;13143;50.924;5.320;2022-12-18T06:53:20;31.50;;;14.20;;
25191;SDS011;13143;50.924;5.320;2022-12-18T06:55:45;29.27;;;14.60;;
25191;SDS011;13143;50.924;5.320;2022-12-18T06:58:11;26.95;;;13.55;;
25191;SDS011;13143;50.924;5.320;2022-12-18T07:00:37;28.45;;;13.23;;
25191;SDS011;13143;50.924;5.320;2022-12-18T07:03:02;31.25;;;14.32;;
25191;SDS011;13143;50.924;5.320;2022-12-18T07:05:28;29.02;;;14.32;;
25191;SDS011;13143;50.924;5.320;2022-12-18T07:07:54;27.60;;;13.45;;
25191;SDS011;13143;50.924;5.320;2022-12-18T07:10:19;34.97;;;15.05;;
25191;SDS011;13143;50.924;5.320;2022-12-18T07:12:45;32.63;;;14.85;;
25191;SDS011;13143;50.924;5.320;2022-12-18T07:15:11;31.48;;;14.55;;
25191;SDS011;13143;50.924;5.320;2022-12-18T07:17:36;30.75;;;14.60;;
25191;SDS011;13143;50.924;5.320;2022-12-18T07:20:02;31.33;;;14.77;;
25191;SDS011;13143;50.924;5.320;2022-12-18T07:22:28;29.30;;;14.18;;
25191;SDS011;13143;50.924;5.320;2022-12-18T07:24:54;32.92;;;13.93;;
25191;SDS011;13143;50.924;5.320;2022-12-18T07:27:20;31.98;;;15.10;;
25191;SDS011;13143;50.924;5.320;2022-12-18T07:29:46;35.17;;;14.07;;
25191;SDS011;13143;50.924;5.320;2022-12-18T07:32:12;39.60;;;15.68;;
25191;SDS011;13143;50.924;5.320;2022-12-18T07:34:37;35.50;;;14.88;;
25191;SDS011;13143;50.924;5.320;2022-12-18T07:37:03;38.83;;;15.50;;
25191;SDS011;13143;50.924;5.320;2022-12-18T07:39:29;30.90;;;14.07;;
25191;SDS011;13143;50.924;5.320;2022-12-18T07:41:55;31.98;;;14.32;;
25191;SDS011;13143;50.924;5.320;2022-12-18T07:44:39;33.22;;;13.98;;
25191;SDS011;13143;50.924;5.320;2022-12-18T07:47:05;30.98;;;13.82;;
25191;SDS011;13143;50.924;5.320;2022-12-18T07:49:30;32.95;;;13.52;;
25191;SDS011;13143;50.924;5.320;2022-12-18T07:51:56;33.60;;;14.18;;
25191;SDS011;13143;50.924;5.320;2022-12-18T07:54:23;32.45;;;13.85;;
25191;SDS011;13143;50.924;5.320;2022-12-18T07:56:49;35.65;;;13.57;;
25191;SDS011;13143;50.924;5.320;2022-12-18T07:59:16;28.52;;;13.02;;
25191;SDS011;13143;50.924;5.320;2022-12-18T08:01:41;27.88;;;12.63;;
25191;SDS011;13143;50.924;5.320;2022-12-18T08:04:07;29.15;;;12.85;;
25191;SDS011;13143;50.924;5.320;2022-12-18T08:06:33;30.63;;;12.55;;
25191;SDS011;13143;50.924;5.320;2022-12-18T08:08:58;25.98;;;11.75;;
25191;SDS011;13143;50.924;5.320;2022-12-18T08:11:25;25.70;;;12.13;;
25191;SDS011;13143;50.924;5.320;2022-12-18T08:13:52;29.25;;;12.43;;
25191;SDS011;13143;50.924;5.320;2022-12-18T08:16:18;29.27;;;12.40;;
25191;SDS011;13143;50.924;5.320;2022-12-18T08:18:44;27.45;;;12.45;;
25191;SDS011;13143;50.924;5.320;2022-12-18T08:23:37;26.58;;;12.38;;
25191;SDS011;13143;50.924;5.320;2022-12-18T08:26:03;28.42;;;13.30;;
25191;SDS011;13143;50.924;5.320;2022-12-18T08:28:29;24.88;;;12.30;;
25191;SDS011;13143;50.924;5.320;2022-12-18T08:30:54;28.02;;;13.73;;
25191;SDS011;13143;50.924;5.320;2022-12-18T08:33:20;29.38;;;14.02;;
25191;SDS011;13143;50.924;5.320;2022-12-18T08:35:46;31.00;;;13.30;;
25191;SDS011;13143;50.924;5.320;2022-12-18T08:38:11;32.88;;;13.82;;
25191;SDS011;13143;50.924;5.320;2022-12-18T08:40:37;27.33;;;12.65;;
25191;SDS011;13143;50.924;5.320;2022-12-18T08:43:02;30.63;;;13.98;;
25191;SDS011;13143;50.924;5.320;2022-12-18T08:45:47;30.15;;;13.35;;
25191;SDS011;13143;50.924;5.320;2022-12-18T08:48:12;32.17;;;13.40;;
25191;SDS011;13143;50.924;5.320;2022-12-18T08:50:38;28.77;;;13.27;;
25191;SDS011;13143;50.924;5.320;2022-12-18T08:53:04;29.15;;;14.48;;
25191;SDS011;13143;50.924;5.320;2022-12-18T08:55:29;29.17;;;13.35;;
25191;SDS011;13143;50.924;5.320;2022-12-18T08:57:55;28.45;;;12.18;;
25191;SDS011;13143;50.924;5.320;2022-12-18T09:00:20;28.83;;;13.48;;
25191;SDS011;13143;50.924;5.320;2022-12-18T09:02:46;31.15;;;13.07;;
25191;SDS011;13143;50.924;5.320;2022-12-18T09:05:12;28.00;;;12.65;;
25191;SDS011;13143;50.924;5.320;2022-12-18T09:07:38;30.48;;;12.88;;
25191;SDS011;13143;50.924;5.320;2022-12-18T09:10:04;32.08;;;14.40;;
25191;SDS011;13143;50.924;5.320;2022-12-18T09:12:30;34.38;;;14.80;;
25191;SDS011;13143;50.924;5.320;2022-12-18T09:14:56;31.85;;;14.85;;
25191;SDS011;13143;50.924;5.320;2022-12-18T09:17:22;30.05;;;13.63;;
25191;SDS011;13143;50.924;5.320;2022-12-18T09:19:47;29.08;;;12.95;;
25191;SDS011;13143;50.924;5.320;2022-12-18T09:22:14;25.55;;;12.98;;
25191;SDS011;13143;50.924;5.320;2022-12-18T09:24:39;25.35;;;12.65;;
25191;SDS011;13143;50.924;5.320;2022-12-18T09:27:05;26.38;;;12.95;;
25191;SDS011;13143;50.924;5.320;2022-12-18T09:29:31;28.67;;;13.07;;
25191;SDS011;13143;50.924;5.320;2022-12-18T09:31:57;25.90;;;11.95;;
25191;SDS011;13143;50.924;5.320;2022-12-18T09:34:23;28.77;;;13.50;;
25191;SDS011;13143;50.924;5.320;2022-12-18T09:36:49;29.15;;;13.73;;
25191;SDS011;13143;50.924;5.320;2022-12-18T09:39:15;30.70;;;14.48;;
25191;SDS011;13143;50.924;5.320;2022-12-18T09:41:50;35.15;;;14.52;;
25191;SDS011;13143;50.924;5.320;2022-12-18T09:47:02;28.08;;;13.45;;
25191;SDS011;13143;50.924;5.320;2022-12-18T09:49:42;30.35;;;13.70;;
25191;SDS011;13143;50.924;5.320;2022-12-18T09:52:32;27.38;;;12.65;;
25191;SDS011;13143;50.924;5.320;2022-12-18T09:57:33;35.88;;;14.02;;
25191;SDS011;13143;50.924;5.320;2022-12-18T10:00:08;32.70;;;14.00;;
25191;SDS011;13143;50.924;5.320;2022-12-18T10:02:43;29.55;;;14.50;;
25191;SDS011;13143;50.924;5.320;2022-12-18T10:05:13;35.30;;;14.30;;
25191;SDS011;13143;50.924;5.320;2022-12-18T10:07:59;28.05;;;13.20;;
25191;SDS011;13143;50.924;5.320;2022-12-18T10:13:04;34.47;;;13.63;;
25191;SDS011;13143;50.924;5.320;2022-12-18T10:15:54;30.50;;;14.40;;
25191;SDS011;13143;50.924;5.320;2022-12-18T10:21:23;30.40;;;13.98;;
25191;SDS011;13143;50.924;5.320;2022-12-18T10:24:04;29.85;;;13.57;;
25191;SDS011;13143;50.924;5.320;2022-12-18T10:26:33;29.50;;;14.00;;
25191;SDS011;13143;50.924;5.320;2022-12-18T10:28:59;30.63;;;14.68;;
25191;SDS011;13143;50.924;5.320;2022-12-18T10:31:26;33.38;;;14.45;;
25191;SDS011;13143;50.924;5.320;2022-12-18T10:33:54;33.80;;;14.90;;
25191;SDS011;13143;50.924;5.320;2022-12-18T10:36:20;35.67;;;15.13;;
25191;SDS011;13143;50.924;5.320;2022-12-18T10:38:46;33.80;;;15.65;;
25191;SDS011;13143;50.924;5.320;2022-12-18T10:43:48;32.53;;;15.35;;
25191;SDS011;13143;50.924;5.320;2022-12-18T10:46:33;33.08;;;14.90;;
25191;SDS011;13143;50.924;5.320;2022-12-18T10:48:59;37.42;;;16.45;;
25191;SDS011;13143;50.924;5.320;2022-12-18T10:51:32;35.10;;;16.65;;
25191;SDS011;13143;50.924;5.320;2022-12-18T10:54:02;35.50;;;16.25;;
25191;SDS011;13143;50.924;5.320;2022-12-18T10:56:31;40.13;;;17.50;;
25191;SDS011;13143;50.924;5.320;2022-12-18T10:59:00;33.25;;;16.05;;
25191;SDS011;13143;50.924;5.320;2022-12-18T11:01:30;30.77;;;16.25;;
25191;SDS011;13143;50.924;5.320;2022-12-18T11:04:15;33.80;;;15.40;;
25191;SDS011;13143;50.924;5.320;2022-12-18T11:06:53;33.10;;;15.90;;
25191;SDS011;13143;50.924;5.320;2022-12-18T11:09:31;34.15;;;16.08;;
25191;SDS011;13143;50.924;5.320;2022-12-18T11:11:59;37.63;;;16.55;;
25191;SDS011;13143;50.924;5.320;2022-12-18T11:14:28;32.80;;;15.55;;
25191;SDS011;13143;50.924;5.320;2022-12-18T11:16:59;30.15;;;14.75;;
25191;SDS011;13143;50.924;5.320;2022-12-18T11:19:33;31.27;;;15.55;;
25191;SDS011;13143;50.924;5.320;2022-12-18T11:21:59;31.30;;;15.27;;
25191;SDS011;13143;50.924;5.320;2022-12-18T11:24:30;31.48;;;14.43;;
25191;SDS011;13143;50.924;5.320;2022-12-18T11:27:03;28.83;;;15.67;;
25191;SDS011;13143;50.924;5.320;2022-12-18T11:29:32;36.20;;;15.95;;
25191;SDS011;13143;50.924;5.320;2022-12-18T11:34:45;30.95;;;14.52;;
25191;SDS011;13143;50.924;5.320;2022-12-18T11:37:13;33.03;;;14.82;;
25191;SDS011;13143;50.924;5.320;2022-12-18T11:39:55;32.45;;;15.65;;
25191;SDS011;13143;50.924;5.320;2022-12-18T11:42:35;35.42;;;14.98;;
25191;SDS011;13143;50.924;5.320;2022-12-18T11:45:17;36.50;;;16.08;;
25191;SDS011;13143;50.924;5.320;2022-12-18T11:53:02;34.88;;;16.15;;
25191;SDS011;13143;50.924;5.320;2022-12-18T11:55:49;42.15;;;16.60;;
25191;SDS011;13143;50.924;5.320;2022-12-18T11:58:24;33.95;;;16.38;;
25191;SDS011;13143;50.924;5.320;2022-12-18T12:04:16;36.58;;;17.08;;
25191;SDS011;13143;50.924;5.320;2022-12-18T12:18:20;36.63;;;17.00;;
25191;SDS011;13143;50.924;5.320;2022-12-18T12:20:23;34.45;;;16.40;;
25191;SDS011;13143;50.924;5.320;2022-12-18T12:23:34;37.75;;;17.75;;
25191;SDS011;13143;50.924;5.320;2022-12-18T12:26:12;35.80;;;16.63;;
25191;SDS011;13143;50.924;5.320;2022-12-18T12:29:17;33.95;;;16.75;;
25191;SDS011;13143;50.924;5.320;2022-12-18T12:37:46;34.55;;;17.70;;
25191;SDS011;13143;50.924;5.320;2022-12-18T12:40:14;35.58;;;17.90;;
25191;SDS011;13143;50.924;5.320;2022-12-18T12:43:07;35.90;;;17.75;;
25191;SDS011;13143;50.924;5.320;2022-12-18T12:49:03;37.85;;;17.88;;
25191;SDS011;13143;50.924;5.320;2022-12-18T12:51:12;41.22;;;19.70;;
25191;SDS011;13143;50.924;5.320;2022-12-18T12:53:45;35.85;;;18.15;;
25191;SDS011;13143;50.924;5.320;2022-12-18T12:56:12;41.38;;;18.27;;
25191;SDS011;13143;50.924;5.320;2022-12-18T13:02:05;41.15;;;18.48;;
25191;SDS011;13143;50.924;5.320;2022-12-18T13:07:12;39.72;;;19.25;;
25191;SDS011;13143;50.924;5.320;2022-12-18T13:15:22;36.22;;;18.65;;
25191;SDS011;13143;50.924;5.320;2022-12-18T13:28:16;43.40;;;19.10;;
25191;SDS011;13143;50.924;5.320;2022-12-18T13:30:52;41.80;;;19.38;;
25191;SDS011;13143;50.924;5.320;2022-12-18T13:38:33;48.65;;;21.25;;
25191;SDS011;13143;50.924;5.320;2022-12-18T13:43:55;49.33;;;20.98;;
25191;SDS011;13143;50.924;5.320;2022-12-18T13:51:51;41.05;;;20.40;;
25191;SDS011;13143;50.924;5.320;2022-12-18T13:56:49;42.97;;;20.55;;
25191;SDS011;13143;50.924;5.320;2022-12-18T13:59:19;45.50;;;21.73;;
25191;SDS011;13143;50.924;5.320;2022-12-18T14:01:50;48.00;;;21.67;;
25191;SDS011;13143;50.924;5.320;2022-12-18T14:04:31;48.92;;;22.45;;
25191;SDS011;13143;50.924;5.320;2022-12-18T14:07:01;48.08;;;22.13;;
25191;SDS011;13143;50.924;5.320;2022-12-18T14:09:36;50.53;;;21.52;;
25191;SDS011;13143;50.924;5.320;2022-12-18T14:12:06;41.10;;;20.85;;
25191;SDS011;13143;50.924;5.320;2022-12-18T14:14:56;41.50;;;21.83;;
25191;SDS011;13143;50.924;5.320;2022-12-18T14:17:25;41.65;;;20.90;;
25191;SDS011;13143;50.924;5.320;2022-12-18T14:19:51;46.17;;;21.90;;
25191;SDS011;13143;50.924;5.320;2022-12-18T14:22:21;41.47;;;22.52;;
25191;SDS011;13143;50.924;5.320;2022-12-18T14:27:53;45.15;;;20.95;;
25191;SDS011;13143;50.924;5.320;2022-12-18T14:30:31;41.90;;;21.30;;
25191;SDS011;13143;50.924;5.320;2022-12-18T14:33:10;47.40;;;22.10;;
25191;SDS011;13143;50.924;5.320;2022-12-18T14:35:37;42.50;;;21.08;;
25191;SDS011;13143;50.924;5.320;2022-12-18T14:38:38;43.83;;;22.02;;
25191;SDS011;13143;50.924;5.320;2022-12-18T14:41:06;45.80;;;21.73;;
25191;SDS011;13143;50.924;5.320;2022-12-18T14:43:38;44.40;;;22.40;;
25191;SDS011;13143;50.924;5.320;2022-12-18T14:46:06;37.15;;;18.90;;
25191;SDS011;13143;50.924;5.320;2022-12-18T14:49:27;38.85;;;18.20;;
25191;SDS011;13143;50.924;5.320;2022-12-18T14:51:56;41.88;;;20.10;;
25191;SDS011;13143;50.924;5.320;2022-12-18T14:54:23;38.17;;;18.63;;
25191;SDS011;13143;50.924;5.320;2022-12-18T14:57:23;41.03;;;18.95;;
25191;SDS011;13143;50.924;5.320;2022-12-18T14:59:49;39.50;;;18.65;;
25191;SDS011;13143;50.924;5.320;2022-12-18T15:02:20;37.05;;;17.95;;
25191;SDS011;13143;50.924;5.320;2022-12-18T15:07:46;38.83;;;17.95;;
25191;SDS011;13143;50.924;5.320;2022-12-18T15:10:17;38.92;;;18.83;;
25191;SDS011;13143;50.924;5.320;2022-12-18T15:17:59;41.33;;;19.42;;
25191;SDS011;13143;50.924;5.320;2022-12-18T15:20:25;41.15;;;20.30;;
25191;SDS011;13143;50.924;5.320;2022-12-18T15:22:51;47.13;;;23.20;;
25191;SDS011;13143;50.924;5.320;2022-12-18T15:25:29;42.97;;;20.40;;
25191;SDS011;13143;50.924;5.320;2022-12-18T15:27:59;42.33;;;20.05;;
25191;SDS011;13143;50.924;5.320;2022-12-18T15:30:25;42.15;;;19.98;;
25191;SDS011;13143;50.924;5.320;2022-12-18T15:32:51;42.85;;;19.48;;
25191;SDS011;13143;50.924;5.320;2022-12-18T15:35:37;46.75;;;21.67;;
25191;SDS011;13143;50.924;5.320;2022-12-18T15:38:03;42.28;;;20.40;;
25191;SDS011;13143;50.924;5.320;2022-12-18T15:40:28;46.10;;;20.52;;
25191;SDS011;13143;50.924;5.320;2022-12-18T15:42:54;45.33;;;20.20;;
25191;SDS011;13143;50.924;5.320;2022-12-18T15:45:39;42.38;;;19.70;;
25191;SDS011;13143;50.924;5.320;2022-12-18T15:48:21;40.00;;;20.85;;
25191;SDS011;13143;50.924;5.320;2022-12-18T15:50:48;44.45;;;21.15;;
25191;SDS011;13143;50.924;5.320;2022-12-18T15:53:18;42.08;;;19.13;;
25191;SDS011;13143;50.924;5.320;2022-12-18T15:55:44;44.33;;;19.85;;
25191;SDS011;13143;50.924;5.320;2022-12-18T15:58:28;45.00;;;21.67;;
25191;SDS011;13143;50.924;5.320;2022-12-18T16:00:54;45.45;;;21.05;;
25191;SDS011;13143;50.924;5.320;2022-12-18T16:03:22;39.55;;;19.02;;
25191;SDS011;13143;50.924;5.320;2022-12-18T16:05:48;42.85;;;19.13;;
25191;SDS011;13143;50.924;5.320;2022-12-18T16:08:14;42.20;;;19.10;;
25191;SDS011;13143;50.924;5.320;2022-12-18T16:10:39;42.30;;;20.02;;
25191;SDS011;13143;50.924;5.320;2022-12-18T16:13:05;40.58;;;19.20;;
25191;SDS011;13143;50.924;5.320;2022-12-18T16:15:34;41.17;;;19.88;;
25191;SDS011;13143;50.924;5.320;2022-12-18T16:18:00;44.70;;;20.52;;
25191;SDS011;13143;50.924;5.320;2022-12-18T16:20:26;41.05;;;20.00;;
25191;SDS011;13143;50.924;5.320;2022-12-18T16:22:51;42.78;;;19.48;;
25191;SDS011;13143;50.924;5.320;2022-12-18T16:25:22;40.03;;;19.60;;
25191;SDS011;13143;50.924;5.320;2022-12-18T16:27:49;42.78;;;19.08;;
25191;SDS011;13143;50.924;5.320;2022-12-18T16:30:16;41.83;;;21.77;;
25191;SDS011;13143;50.924;5.320;2022-12-18T16:32:43;45.97;;;20.92;;
25191;SDS011;13143;50.924;5.320;2022-12-18T16:35:10;42.75;;;20.52;;
25191;SDS011;13143;50.924;5.320;2022-12-18T16:37:37;46.30;;;21.35;;
25191;SDS011;13143;50.924;5.320;2022-12-18T16:40:03;41.83;;;20.63;;
25191;SDS011;13143;50.924;5.320;2022-12-18T16:42:29;41.70;;;21.17;;